Valley Springs, South Dakota
Current Conditions -  °F | °C
As of 3:15 AM on Thursday 27 Nov 2014 (Local Time) from KLYV Reporting Station
Clear Clear  
Wind Chill: -24°   Ceiling: Unl
Heat Index: -18°   Visibility: 10mi
Dew Point: -22°   Wind: 6mph
Humidity: 72%   Direction: 340°NNW
Pressure: 30.49"   Gusts: NA
Location:  43.58°N, 96.47°W
Report Text: KLYV 270915Z AUTO 34005KT 10SM CLR M18/M22 A3049 RMK AO2
Loading
Personal Weather Stations






























Interactive Weather Map New forecast layout! Learn more

10-Day Weather Forecast

Advertisements
Track Severe Weather on mobile